sensor_id;sensor_type;location;lat;lon;timestamp;temperature;humidity
9861;DHT22;4969;52.304;4.968;2022-11-20T00:00:17;0.91;70.96
9861;DHT22;4969;52.304;4.968;2022-11-20T00:02:43;1.20;71.76
9861;DHT22;4969;52.304;4.968;2022-11-20T00:05:10;1.66;72.21
9861;DHT22;4969;52.304;4.968;2022-11-20T00:07:38;2.07;71.05
9861;DHT22;4969;52.304;4.968;2022-11-20T00:10:05;1.86;68.83
9861;DHT22;4969;52.304;4.968;2022-11-20T00:12:32;1.79;69.94
9861;DHT22;4969;52.304;4.968;2022-11-20T00:14:58;1.98;68.14
9861;DHT22;4969;52.304;4.968;2022-11-20T00:17:25;2.45;71.33
9861;DHT22;4969;52.304;4.968;2022-11-20T00:19:51;2.46;68.91
9861;DHT22;4969;52.304;4.968;2022-11-20T00:22:18;2.07;67.89
9861;DHT22;4969;52.304;4.968;2022-11-20T00:24:46;2.01;68.54
9861;DHT22;4969;52.304;4.968;2022-11-20T00:27:12;2.17;68.29
9861;DHT22;4969;52.304;4.968;2022-11-20T00:29:39;2.02;69.11
9861;DHT22;4969;52.304;4.968;2022-11-20T00:32:06;1.94;71.06
9861;DHT22;4969;52.304;4.968;2022-11-20T00:34:32;2.07;69.47
9861;DHT22;4969;52.304;4.968;2022-11-20T00:36:59;1.95;69.98
9861;DHT22;4969;52.304;4.968;2022-11-20T00:39:25;2.31;70.79
9861;DHT22;4969;52.304;4.968;2022-11-20T00:41:53;1.94;68.54
9861;DHT22;4969;52.304;4.968;2022-11-20T00:44:20;2.05;70.06
9861;DHT22;4969;52.304;4.968;2022-11-20T00:46:47;2.14;69.94
9861;DHT22;4969;52.304;4.968;2022-11-20T00:49:13;2.60;68.32
9861;DHT22;4969;52.304;4.968;2022-11-20T00:51:40;2.42;67.97
9861;DHT22;4969;52.304;4.968;2022-11-20T00:54:06;2.08;68.83
9861;DHT22;4969;52.304;4.968;2022-11-20T00:56:33;2.10;69.85
9861;DHT22;4969;52.304;4.968;2022-11-20T00:59:01;2.36;70.04
9861;DHT22;4969;52.304;4.968;2022-11-20T01:01:28;2.72;69.77
9861;DHT22;4969;52.304;4.968;2022-11-20T01:03:56;2.66;68.31
9861;DHT22;4969;52.304;4.968;2022-11-20T01:06:24;1.80;67.87
9861;DHT22;4969;52.304;4.968;2022-11-20T01:08:53;1.74;69.71
9861;DHT22;4969;52.304;4.968;2022-11-20T01:11:22;1.94;69.79
9861;DHT22;4969;52.304;4.968;2022-11-20T01:13:51;2.45;70.93
9861;DHT22;4969;52.304;4.968;2022-11-20T01:16:21;2.83;72.92
9861;DHT22;4969;52.304;4.968;2022-11-20T01:18:49;2.95;69.60
9861;DHT22;4969;52.304;4.968;2022-11-20T01:21:17;2.84;69.20
9861;DHT22;4969;52.304;4.968;2022-11-20T01:23:44;2.39;67.24
9861;DHT22;4969;52.304;4.968;2022-11-20T01:26:13;1.84;68.68
9861;DHT22;4969;52.304;4.968;2022-11-20T01:28:40;1.83;70.67
9861;DHT22;4969;52.304;4.968;2022-11-20T01:31:12;2.21;71.13
9861;DHT22;4969;52.304;4.968;2022-11-20T01:33:42;2.00;69.04
9861;DHT22;4969;52.304;4.968;2022-11-20T01:36:09;2.00;69.93
9861;DHT22;4969;52.304;4.968;2022-11-20T01:38:36;1.80;70.28
9861;DHT22;4969;52.304;4.968;2022-11-20T01:41:03;2.52;72.18
9861;DHT22;4969;52.304;4.968;2022-11-20T01:43:30;2.76;67.50
9861;DHT22;4969;52.304;4.968;2022-11-20T01:46:00;2.24;68.10
9861;DHT22;4969;52.304;4.968;2022-11-20T01:48:30;2.34;71.32
9861;DHT22;4969;52.304;4.968;2022-11-20T01:51:00;2.73;70.04
9861;DHT22;4969;52.304;4.968;2022-11-20T01:53:30;2.55;68.38
9861;DHT22;4969;52.304;4.968;2022-11-20T01:56:00;2.42;68.54
9861;DHT22;4969;52.304;4.968;2022-11-20T01:58:30;2.34;70.63
9861;DHT22;4969;52.304;4.968;2022-11-20T02:00:59;2.39;68.50
9861;DHT22;4969;52.304;4.968;2022-11-20T02:03:26;2.14;68.96
9861;DHT22;4969;52.304;4.968;2022-11-20T02:05:56;2.62;69.67
9861;DHT22;4969;52.304;4.968;2022-11-20T02:08:27;2.77;68.91
9861;DHT22;4969;52.304;4.968;2022-11-20T02:10:54;3.09;69.40
9861;DHT22;4969;52.304;4.968;2022-11-20T02:13:21;2.55;67.50
9861;DHT22;4969;52.304;4.968;2022-11-20T02:16:05;1.80;67.93
9861;DHT22;4969;52.304;4.968;2022-11-20T02:18:35;1.56;69.81
9861;DHT22;4969;52.304;4.968;2022-11-20T02:21:08;1.87;70.69
9861;DHT22;4969;52.304;4.968;2022-11-20T02:23:39;2.17;69.24
9861;DHT22;4969;52.304;4.968;2022-11-20T02:26:13;2.52;69.02
9861;DHT22;4969;52.304;4.968;2022-11-20T02:28:41;2.15;67.64
9861;DHT22;4969;52.304;4.968;2022-11-20T02:31:08;2.28;67.98
9861;DHT22;4969;52.304;4.968;2022-11-20T02:33:35;1.77;67.35
9861;DHT22;4969;52.304;4.968;2022-11-20T02:36:01;1.64;68.47
9861;DHT22;4969;52.304;4.968;2022-11-20T02:38:28;1.56;68.59
9861;DHT22;4969;52.304;4.968;2022-11-20T02:40:55;1.74;69.37
9861;DHT22;4969;52.304;4.968;2022-11-20T02:43:23;1.73;67.90
9861;DHT22;4969;52.304;4.968;2022-11-20T02:45:49;1.86;67.61
9861;DHT22;4969;52.304;4.968;2022-11-20T02:48:16;1.94;69.01
9861;DHT22;4969;52.304;4.968;2022-11-20T02:50:42;2.07;68.48
9861;DHT22;4969;52.304;4.968;2022-11-20T02:53:09;2.36;68.89
9861;DHT22;4969;52.304;4.968;2022-11-20T02:55:36;2.62;70.12
9861;DHT22;4969;52.304;4.968;2022-11-20T02:58:02;3.09;69.26
9861;DHT22;4969;52.304;4.968;2022-11-20T03:00:30;2.97;66.42
9861;DHT22;4969;52.304;4.968;2022-11-20T03:02:57;2.01;65.61
9861;DHT22;4969;52.304;4.968;2022-11-20T03:05:23;1.62;68.60
9861;DHT22;4969;52.304;4.968;2022-11-20T03:07:50;1.15;66.89
9861;DHT22;4969;52.304;4.968;2022-11-20T03:10:17;1.60;70.28
9861;DHT22;4969;52.304;4.968;2022-11-20T03:12:43;2.00;69.17
9861;DHT22;4969;52.304;4.968;2022-11-20T03:15:10;2.35;69.50
9861;DHT22;4969;52.304;4.968;2022-11-20T03:17:38;2.21;67.66
9861;DHT22;4969;52.304;4.968;2022-11-20T03:20:06;1.62;67.00
9861;DHT22;4969;52.304;4.968;2022-11-20T03:22:34;1.20;67.93
9861;DHT22;4969;52.304;4.968;2022-11-20T03:25:00;0.97;69.42
9861;DHT22;4969;52.304;4.968;2022-11-20T03:27:32;1.58;71.35
9861;DHT22;4969;52.304;4.968;2022-11-20T03:29:58;2.22;69.61
9861;DHT22;4969;52.304;4.968;2022-11-20T03:32:25;2.17;67.55
9861;DHT22;4969;52.304;4.968;2022-11-20T03:34:53;2.07;66.90
9861;DHT22;4969;52.304;4.968;2022-11-20T03:37:19;1.70;67.86
9861;DHT22;4969;52.304;4.968;2022-11-20T03:39:46;1.90;69.73
9861;DHT22;4969;52.304;4.968;2022-11-20T03:42:13;1.89;68.16
9861;DHT22;4969;52.304;4.968;2022-11-20T03:44:53;1.83;68.96
9861;DHT22;4969;52.304;4.968;2022-11-20T03:47:20;2.41;69.49
9861;DHT22;4969;52.304;4.968;2022-11-20T03:49:46;1.83;69.14
9861;DHT22;4969;52.304;4.968;2022-11-20T03:52:14;2.24;68.36
9861;DHT22;4969;52.304;4.968;2022-11-20T03:54:41;2.36;68.60
9861;DHT22;4969;52.304;4.968;2022-11-20T03:57:08;2.72;68.18
9861;DHT22;4969;52.304;4.968;2022-11-20T03:59:34;2.70;66.62
9861;DHT22;4969;52.304;4.968;2022-11-20T04:02:01;2.01;67.00
9861;DHT22;4969;52.304;4.968;2022-11-20T04:04:27;2.05;66.23
9861;DHT22;4969;52.304;4.968;2022-11-20T04:06:54;1.91;67.55
9861;DHT22;4969;52.304;4.968;2022-11-20T04:09:22;1.66;67.71
9861;DHT22;4969;52.304;4.968;2022-11-20T04:11:48;1.41;67.65
9861;DHT22;4969;52.304;4.968;2022-11-20T04:14:15;1.18;68.26
9861;DHT22;4969;52.304;4.968;2022-11-20T04:16:43;1.12;68.94
9861;DHT22;4969;52.304;4.968;2022-11-20T04:19:11;1.90;70.34
9861;DHT22;4969;52.304;4.968;2022-11-20T04:21:39;2.46;70.11
9861;DHT22;4969;52.304;4.968;2022-11-20T04:24:07;2.46;67.75
9861;DHT22;4969;52.304;4.968;2022-11-20T04:26:35;1.67;66.66
9861;DHT22;4969;52.304;4.968;2022-11-20T04:29:02;1.45;69.11
9861;DHT22;4969;52.304;4.968;2022-11-20T04:31:30;1.72;68.00
9861;DHT22;4969;52.304;4.968;2022-11-20T04:34:00;1.81;67.98
9861;DHT22;4969;52.304;4.968;2022-11-20T04:36:27;1.62;67.19
9861;DHT22;4969;52.304;4.968;2022-11-20T04:38:55;1.39;67.57
9861;DHT22;4969;52.304;4.968;2022-11-20T04:41:23;1.97;69.39
9861;DHT22;4969;52.304;4.968;2022-11-20T04:43:53;2.38;69.79
9861;DHT22;4969;52.304;4.968;2022-11-20T04:46:24;2.70;68.55
9861;DHT22;4969;52.304;4.968;2022-11-20T04:48:52;2.91;67.11
9861;DHT22;4969;52.304;4.968;2022-11-20T04:51:18;2.56;66.64
9861;DHT22;4969;52.304;4.968;2022-11-20T04:53:45;2.59;68.66
9861;DHT22;4969;52.304;4.968;2022-11-20T04:56:13;2.46;66.46
9861;DHT22;4969;52.304;4.968;2022-11-20T04:58:40;2.76;68.10
9861;DHT22;4969;52.304;4.968;2022-11-20T05:01:10;3.15;69.83
9861;DHT22;4969;52.304;4.968;2022-11-20T05:03:37;3.22;70.77
9861;DHT22;4969;52.304;4.968;2022-11-20T05:06:05;3.33;68.66
9861;DHT22;4969;52.304;4.968;2022-11-20T05:08:32;2.93;67.47
9861;DHT22;4969;52.304;4.968;2022-11-20T05:11:00;2.42;67.05
9861;DHT22;4969;52.304;4.968;2022-11-20T05:13:27;2.62;69.04
9861;DHT22;4969;52.304;4.968;2022-11-20T05:15:53;2.62;67.37
9861;DHT22;4969;52.304;4.968;2022-11-20T05:18:22;2.55;68.41
9861;DHT22;4969;52.304;4.968;2022-11-20T05:20:54;2.53;67.45
9861;DHT22;4969;52.304;4.968;2022-11-20T05:23:21;1.95;66.33
9861;DHT22;4969;52.304;4.968;2022-11-20T05:25:48;1.42;67.26
9861;DHT22;4969;52.304;4.968;2022-11-20T05:28:17;1.77;68.53
9861;DHT22;4969;52.304;4.968;2022-11-20T05:30:44;1.58;67.13
9861;DHT22;4969;52.304;4.968;2022-11-20T05:33:10;1.90;69.05
9861;DHT22;4969;52.304;4.968;2022-11-20T05:35:38;1.76;67.72
9861;DHT22;4969;52.304;4.968;2022-11-20T05:38:05;0.84;66.02
9861;DHT22;4969;52.304;4.968;2022-11-20T05:40:32;0.24;68.49
9861;DHT22;4969;52.304;4.968;2022-11-20T05:42:59;-0.25;68.97
9861;DHT22;4969;52.304;4.968;2022-11-20T05:45:26;-0.30;70.46
9861;DHT22;4969;52.304;4.968;2022-11-20T05:47:52;-0.42;71.07
9861;DHT22;4969;52.304;4.968;2022-11-20T05:50:19;-0.40;71.46
9861;DHT22;4969;52.304;4.968;2022-11-20T05:52:47;-0.49;70.53
9861;DHT22;4969;52.304;4.968;2022-11-20T05:55:14;-0.59;70.93
9861;DHT22;4969;52.304;4.968;2022-11-20T05:57:40;-0.73;70.85
9861;DHT22;4969;52.304;4.968;2022-11-20T06:00:08;-0.49;72.37
9861;DHT22;4969;52.304;4.968;2022-11-20T06:02:35;-0.41;71.86
9861;DHT22;4969;52.304;4.968;2022-11-20T06:05:02;-0.38;72.18
9861;DHT22;4969;52.304;4.968;2022-11-20T06:07:28;-0.40;72.42
9861;DHT22;4969;52.304;4.968;2022-11-20T06:09:56;-0.34;72.70
9861;DHT22;4969;52.304;4.968;2022-11-20T06:12:23;-0.31;72.84
9861;DHT22;4969;52.304;4.968;2022-11-20T06:14:50;-0.32;72.95
9861;DHT22;4969;52.304;4.968;2022-11-20T06:17:16;-0.30;73.29
9861;DHT22;4969;52.304;4.968;2022-11-20T06:19:43;-0.27;73.30
9861;DHT22;4969;52.304;4.968;2022-11-20T06:22:10;-0.21;73.42
9861;DHT22;4969;52.304;4.968;2022-11-20T06:24:36;-0.31;73.25
9861;DHT22;4969;52.304;4.968;2022-11-20T06:27:04;-0.32;73.82
9861;DHT22;4969;52.304;4.968;2022-11-20T06:29:31;-0.52;73.12
9861;DHT22;4969;52.304;4.968;2022-11-20T06:31:57;-0.56;73.39
9861;DHT22;4969;52.304;4.968;2022-11-20T06:34:24;-0.46;74.15
9861;DHT22;4969;52.304;4.968;2022-11-20T06:36:51;-0.30;74.21
9861;DHT22;4969;52.304;4.968;2022-11-20T06:39:17;-0.34;73.45
9861;DHT22;4969;52.304;4.968;2022-11-20T06:41:44;-0.28;73.60
9861;DHT22;4969;52.304;4.968;2022-11-20T06:44:12;-0.38;73.54
9861;DHT22;4969;52.304;4.968;2022-11-20T06:46:38;-0.32;74.17
9861;DHT22;4969;52.304;4.968;2022-11-20T06:49:05;-0.42;73.93
9861;DHT22;4969;52.304;4.968;2022-11-20T06:51:32;-0.41;74.21
9861;DHT22;4969;52.304;4.968;2022-11-20T06:53:58;-0.40;74.33
9861;DHT22;4969;52.304;4.968;2022-11-20T06:56:26;-0.35;74.37
9861;DHT22;4969;52.304;4.968;2022-11-20T06:58:53;-0.30;74.62
9861;DHT22;4969;52.304;4.968;2022-11-20T07:01:21;-0.34;74.51
9861;DHT22;4969;52.304;4.968;2022-11-20T07:03:49;-0.35;74.72
9861;DHT22;4969;52.304;4.968;2022-11-20T07:06:16;-0.30;75.10
9861;DHT22;4969;52.304;4.968;2022-11-20T07:08:43;-0.32;74.43
9861;DHT22;4969;52.304;4.968;2022-11-20T07:11:12;-0.34;74.95
9861;DHT22;4969;52.304;4.968;2022-11-20T07:13:38;-0.30;75.38
9861;DHT22;4969;52.304;4.968;2022-11-20T07:16:07;-0.30;75.21
9861;DHT22;4969;52.304;4.968;2022-11-20T07:18:35;-0.27;75.18
9861;DHT22;4969;52.304;4.968;2022-11-20T07:21:03;-0.21;75.03
9861;DHT22;4969;52.304;4.968;2022-11-20T07:23:30;-0.17;75.37
9861;DHT22;4969;52.304;4.968;2022-11-20T07:25:57;-0.13;75.36
9861;DHT22;4969;52.304;4.968;2022-11-20T07:28:24;-0.10;75.47
9861;DHT22;4969;52.304;4.968;2022-11-20T07:30:51;-0.06;75.44
9861;DHT22;4969;52.304;4.968;2022-11-20T07:33:18;0.00;75.56
9861;DHT22;4969;52.304;4.968;2022-11-20T07:35:46;0.01;75.65
9861;DHT22;4969;52.304;4.968;2022-11-20T07:38:13;0.03;76.03
9861;DHT22;4969;52.304;4.968;2022-11-20T07:40:39;0.07;75.80
9861;DHT22;4969;52.304;4.968;2022-11-20T07:43:06;0.10;75.97
9861;DHT22;4969;52.304;4.968;2022-11-20T07:45:33;0.24;76.13
9861;DHT22;4969;52.304;4.968;2022-11-20T07:47:59;0.32;75.49
9861;DHT22;4969;52.304;4.968;2022-11-20T07:50:26;0.22;75.84
9861;DHT22;4969;52.304;4.968;2022-11-20T07:53:01;0.25;76.54
9861;DHT22;4969;52.304;4.968;2022-11-20T07:55:29;0.27;76.49
9861;DHT22;4969;52.304;4.968;2022-11-20T07:57:55;0.22;76.77
9861;DHT22;4969;52.304;4.968;2022-11-20T08:00:22;0.30;77.18
9861;DHT22;4969;52.304;4.968;2022-11-20T08:02:49;0.31;77.09
9861;DHT22;4969;52.304;4.968;2022-11-20T08:05:16;0.87;76.39
9861;DHT22;4969;52.304;4.968;2022-11-20T08:07:43;0.59;76.04
9861;DHT22;4969;52.304;4.968;2022-11-20T08:10:13;0.62;76.10
9861;DHT22;4969;52.304;4.968;2022-11-20T08:12:44;0.83;75.96
9861;DHT22;4969;52.304;4.968;2022-11-20T08:15:28;1.62;78.17
9861;DHT22;4969;52.304;4.968;2022-11-20T08:17:59;4.40;86.65
9861;DHT22;4969;52.304;4.968;2022-11-20T08:20:26;4.21;81.12
9861;DHT22;4969;52.304;4.968;2022-11-20T08:22:52;2.87;70.55
9861;DHT22;4969;52.304;4.968;2022-11-20T08:25:24;4.06;77.59
9861;DHT22;4969;52.304;4.968;2022-11-20T08:27:51;3.70;72.70
9861;DHT22;4969;52.304;4.968;2022-11-20T08:30:18;3.15;71.36
9861;DHT22;4969;52.304;4.968;2022-11-20T08:32:44;3.23;70.41
9861;DHT22;4969;52.304;4.968;2022-11-20T08:35:11;2.14;69.75
9861;DHT22;4969;52.304;4.968;2022-11-20T08:37:37;2.11;72.75
9861;DHT22;4969;52.304;4.968;2022-11-20T08:40:08;2.11;71.86
9861;DHT22;4969;52.304;4.968;2022-11-20T08:42:36;2.29;77.25
9861;DHT22;4969;52.304;4.968;2022-11-20T08:45:04;3.12;77.76
9861;DHT22;4969;52.304;4.968;2022-11-20T08:47:31;2.90;76.03
9861;DHT22;4969;52.304;4.968;2022-11-20T08:49:57;2.87;73.62
9861;DHT22;4969;52.304;4.968;2022-11-20T08:52:24;2.72;71.41
9861;DHT22;4969;52.304;4.968;2022-11-20T08:54:50;3.71;74.33
9861;DHT22;4969;52.304;4.968;2022-11-20T08:57:17;3.77;74.17
9861;DHT22;4969;52.304;4.968;2022-11-20T08:59:45;3.42;71.58
9861;DHT22;4969;52.304;4.968;2022-11-20T09:02:11;2.72;71.02
9861;DHT22;4969;52.304;4.968;2022-11-20T09:04:38;2.56;72.34
9861;DHT22;4969;52.304;4.968;2022-11-20T09:07:05;3.62;82.00
9861;DHT22;4969;52.304;4.968;2022-11-20T09:09:31;3.63;73.05
9861;DHT22;4969;52.304;4.968;2022-11-20T09:11:58;3.59;73.64
9861;DHT22;4969;52.304;4.968;2022-11-20T09:14:25;3.67;72.29
9861;DHT22;4969;52.304;4.968;2022-11-20T09:16:55;3.59;76.34
9861;DHT22;4969;52.304;4.968;2022-11-20T09:19:23;3.32;71.58
9861;DHT22;4969;52.304;4.968;2022-11-20T09:21:50;2.84;71.84
9861;DHT22;4969;52.304;4.968;2022-11-20T09:24:16;3.62;75.95
9861;DHT22;4969;52.304;4.968;2022-11-20T09:26:43;7.26;84.14
9861;DHT22;4969;52.304;4.968;2022-11-20T09:29:09;5.22;67.61
9861;DHT22;4969;52.304;4.968;2022-11-20T09:31:36;4.19;71.91
9861;DHT22;4969;52.304;4.968;2022-11-20T09:34:04;4.36;68.79
9861;DHT22;4969;52.304;4.968;2022-11-20T09:36:30;4.94;69.93
9861;DHT22;4969;52.304;4.968;2022-11-20T09:39:00;4.09;70.19
9861;DHT22;4969;52.304;4.968;2022-11-20T09:41:38;5.80;81.93
9861;DHT22;4969;52.304;4.968;2022-11-20T09:44:24;5.67;72.86
9861;DHT22;4969;52.304;4.968;2022-11-20T09:46:56;6.57;78.46
9861;DHT22;4969;52.304;4.968;2022-11-20T09:49:36;6.46;73.00
9861;DHT22;4969;52.304;4.968;2022-11-20T09:52:17;5.88;66.96
9861;DHT22;4969;52.304;4.968;2022-11-20T09:54:47;5.29;70.30
9861;DHT22;4969;52.304;4.968;2022-11-20T09:57:18;4.70;73.00
9861;DHT22;4969;52.304;4.968;2022-11-20T09:59:47;5.02;71.77
9861;DHT22;4969;52.304;4.968;2022-11-20T10:02:24;5.25;70.38
9861;DHT22;4969;52.304;4.968;2022-11-20T10:04:58;5.25;70.82
9861;DHT22;4969;52.304;4.968;2022-11-20T10:07:30;6.32;70.14
9861;DHT22;4969;52.304;4.968;2022-11-20T10:09:59;6.75;80.11
9861;DHT22;4969;52.304;4.968;2022-11-20T10:12:33;5.61;66.90
9861;DHT22;4969;52.304;4.968;2022-11-20T10:15:15;4.69;66.77
9861;DHT22;4969;52.304;4.968;2022-11-20T10:18:09;4.74;67.51
9861;DHT22;4969;52.304;4.968;2022-11-20T10:20:45;5.23;71.33
9861;DHT22;4969;52.304;4.968;2022-11-20T10:23:38;6.88;83.33
9861;DHT22;4969;52.304;4.968;2022-11-20T10:26:17;6.64;74.89
9861;DHT22;4969;52.304;4.968;2022-11-20T10:28:58;6.58;66.93
9861;DHT22;4969;52.304;4.968;2022-11-20T10:31:33;7.09;76.86
9861;DHT22;4969;52.304;4.968;2022-11-20T10:34:03;5.80;70.96
9861;DHT22;4969;52.304;4.968;2022-11-20T10:36:36;6.41;74.44
9861;DHT22;4969;52.304;4.968;2022-11-20T10:39:07;5.20;66.62
9861;DHT22;4969;52.304;4.968;2022-11-20T10:41:40;4.81;73.91
9861;DHT22;4969;52.304;4.968;2022-11-20T10:44:12;6.08;70.61
9861;DHT22;4969;52.304;4.968;2022-11-20T10:46:41;5.94;64.61
9861;DHT22;4969;52.304;4.968;2022-11-20T10:49:13;7.85;85.08
9861;DHT22;4969;52.304;4.968;2022-11-20T10:51:50;6.94;78.62
9861;DHT22;4969;52.304;4.968;2022-11-20T10:54:24;5.54;66.29
9861;DHT22;4969;52.304;4.968;2022-11-20T10:56:55;7.37;78.87
9861;DHT22;4969;52.304;4.968;2022-11-20T11:02:34;7.48;63.33
9861;DHT22;4969;52.304;4.968;2022-11-20T11:05:10;6.94;73.66
9861;DHT22;4969;52.304;4.968;2022-11-20T11:07:40;6.36;70.02
9861;DHT22;4969;52.304;4.968;2022-11-20T11:10:15;6.01;66.01
9861;DHT22;4969;52.304;4.968;2022-11-20T11:12:44;6.13;74.23
9861;DHT22;4969;52.304;4.968;2022-11-20T11:15:13;5.47;67.53
9861;DHT22;4969;52.304;4.968;2022-11-20T11:17:46;4.67;67.73
9861;DHT22;4969;52.304;4.968;2022-11-20T11:20:19;4.66;71.60
9861;DHT22;4969;52.304;4.968;2022-11-20T11:22:48;5.07;78.18
9861;DHT22;4969;52.304;4.968;2022-11-20T11:25:27;4.95;68.47
9861;DHT22;4969;52.304;4.968;2022-11-20T11:27:57;5.80;71.58
9861;DHT22;4969;52.304;4.968;2022-11-20T11:30:25;6.20;79.21
9861;DHT22;4969;52.304;4.968;2022-11-20T11:33:02;5.56;77.56
9861;DHT22;4969;52.304;4.968;2022-11-20T11:35:29;5.75;68.13
9861;DHT22;4969;52.304;4.968;2022-11-20T11:38:04;5.01;70.37
9861;DHT22;4969;52.304;4.968;2022-11-20T11:40:34;4.53;70.20
9861;DHT22;4969;52.304;4.968;2022-11-20T11:43:05;4.33;71.94
9861;DHT22;4969;52.304;4.968;2022-11-20T11:45:53;4.32;72.41
9861;DHT22;4969;52.304;4.968;2022-11-20T11:48:20;6.20;79.75
9861;DHT22;4969;52.304;4.968;2022-11-20T11:50:48;5.44;71.34
9861;DHT22;4969;52.304;4.968;2022-11-20T11:53:18;4.91;70.94
9861;DHT22;4969;52.304;4.968;2022-11-20T11:55:47;4.97;71.64
9861;DHT22;4969;52.304;4.968;2022-11-20T11:58:26;4.71;71.66
9861;DHT22;4969;52.304;4.968;2022-11-20T12:01:00;4.83;70.86
9861;DHT22;4969;52.304;4.968;2022-11-20T12:03:34;4.43;72.27
9861;DHT22;4969;52.304;4.968;2022-11-20T12:06:05;6.57;87.73
9861;DHT22;4969;52.304;4.968;2022-11-20T12:08:42;6.95;76.20
9861;DHT22;4969;52.304;4.968;2022-11-20T12:11:13;6.03;74.29
9861;DHT22;4969;52.304;4.968;2022-11-20T12:13:48;6.28;82.46
9861;DHT22;4969;52.304;4.968;2022-11-20T12:16:18;5.61;68.92
9861;DHT22;4969;52.304;4.968;2022-11-20T12:18:47;5.98;70.15
9861;DHT22;4969;52.304;4.968;2022-11-20T12:21:27;6.57;72.50
9861;DHT22;4969;52.304;4.968;2022-11-20T12:24:09;6.46;68.82
9861;DHT22;4969;52.304;4.968;2022-11-20T12:26:51;6.96;77.42
9861;DHT22;4969;52.304;4.968;2022-11-20T12:29:29;7.26;70.58
9861;DHT22;4969;52.304;4.968;2022-11-20T12:35:11;7.33;78.32
9861;DHT22;4969;52.304;4.968;2022-11-20T12:37:46;9.07;75.56
9861;DHT22;4969;52.304;4.968;2022-11-20T12:40:27;8.52;68.25
9861;DHT22;4969;52.304;4.968;2022-11-20T12:43:04;10.52;77.49
9861;DHT22;4969;52.304;4.968;2022-11-20T12:46:18;8.76;64.38
9861;DHT22;4969;52.304;4.968;2022-11-20T12:48:59;8.48;75.54
9861;DHT22;4969;52.304;4.968;2022-11-20T12:51:54;9.24;75.37
9861;DHT22;4969;52.304;4.968;2022-11-20T12:54:49;10.30;74.10
9861;DHT22;4969;52.304;4.968;2022-11-20T12:57:26;11.13;71.02
9861;DHT22;4969;52.304;4.968;2022-11-20T13:00:12;11.38;68.62
9861;DHT22;4969;52.304;4.968;2022-11-20T13:02:56;11.28;71.52
9861;DHT22;4969;52.304;4.968;2022-11-20T13:05:31;12.09;71.29
9861;DHT22;4969;52.304;4.968;2022-11-20T13:08:02;12.27;70.77
9861;DHT22;4969;52.304;4.968;2022-11-20T13:10:34;12.00;69.62
9861;DHT22;4969;52.304;4.968;2022-11-20T13:13:11;12.83;67.44
9861;DHT22;4969;52.304;4.968;2022-11-20T13:15:47;12.85;60.34
9861;DHT22;4969;52.304;4.968;2022-11-20T13:18:15;10.79;60.49
9861;DHT22;4969;52.304;4.968;2022-11-20T13:20:43;10.55;64.96
9861;DHT22;4969;52.304;4.968;2022-11-20T13:23:10;11.14;67.72
9861;DHT22;4969;52.304;4.968;2022-11-20T13:25:38;10.75;71.64
9861;DHT22;4969;52.304;4.968;2022-11-20T13:28:27;12.40;69.78
9861;DHT22;4969;52.304;4.968;2022-11-20T13:30:56;12.03;70.00
9861;DHT22;4969;52.304;4.968;2022-11-20T13:33:27;12.21;60.13
9861;DHT22;4969;52.304;4.968;2022-11-20T13:35:56;12.29;67.11
9861;DHT22;4969;52.304;4.968;2022-11-20T13:38:23;10.61;60.92
9861;DHT22;4969;52.304;4.968;2022-11-20T13:40:54;9.61;66.33
9861;DHT22;4969;52.304;4.968;2022-11-20T13:43:28;9.85;63.64
9861;DHT22;4969;52.304;4.968;2022-11-20T13:45:57;9.12;63.47
9861;DHT22;4969;52.304;4.968;2022-11-20T13:48:26;9.68;80.45
9861;DHT22;4969;52.304;4.968;2022-11-20T13:51:06;9.64;62.83
9861;DHT22;4969;52.304;4.968;2022-11-20T13:53:49;10.51;74.82
9861;DHT22;4969;52.304;4.968;2022-11-20T13:56:24;10.63;74.47
9861;DHT22;4969;52.304;4.968;2022-11-20T13:59:00;11.37;72.01
9861;DHT22;4969;52.304;4.968;2022-11-20T14:01:30;11.75;64.69
9861;DHT22;4969;52.304;4.968;2022-11-20T14:03:57;11.40;67.78
9861;DHT22;4969;52.304;4.968;2022-11-20T14:06:26;10.81;68.20
9861;DHT22;4969;52.304;4.968;2022-11-20T14:08:54;11.07;72.31
9861;DHT22;4969;52.304;4.968;2022-11-20T14:11:22;11.09;71.60
9861;DHT22;4969;52.304;4.968;2022-11-20T14:13:59;10.81;66.51
9861;DHT22;4969;52.304;4.968;2022-11-20T14:16:27;9.73;77.69
9861;DHT22;4969;52.304;4.968;2022-11-20T14:18:55;11.89;71.64
9861;DHT22;4969;52.304;4.968;2022-11-20T14:21:24;11.37;74.10
9861;DHT22;4969;52.304;4.968;2022-11-20T14:23:53;10.21;60.27
9861;DHT22;4969;52.304;4.968;2022-11-20T14:26:19;9.73;64.83
9861;DHT22;4969;52.304;4.968;2022-11-20T14:28:49;8.06;67.40
9861;DHT22;4969;52.304;4.968;2022-11-20T14:31:22;7.95;70.00
9861;DHT22;4969;52.304;4.968;2022-11-20T14:33:50;8.73;70.88
9861;DHT22;4969;52.304;4.968;2022-11-20T14:36:18;8.40;68.88
9861;DHT22;4969;52.304;4.968;2022-11-20T14:38:46;10.10;76.76
9861;DHT22;4969;52.304;4.968;2022-11-20T14:41:17;10.45;72.71
9861;DHT22;4969;52.304;4.968;2022-11-20T14:43:46;8.34;65.50
9861;DHT22;4969;52.304;4.968;2022-11-20T14:46:14;7.75;71.00
9861;DHT22;4969;52.304;4.968;2022-11-20T14:48:45;7.19;76.88
9861;DHT22;4969;52.304;4.968;2022-11-20T14:51:24;6.83;70.66
9861;DHT22;4969;52.304;4.968;2022-11-20T14:53:52;6.78;74.36
9861;DHT22;4969;52.304;4.968;2022-11-20T14:56:21;6.02;72.94
9861;DHT22;4969;52.304;4.968;2022-11-20T14:58:55;6.81;75.59
9861;DHT22;4969;52.304;4.968;2022-11-20T15:01:25;7.01;75.55
9861;DHT22;4969;52.304;4.968;2022-11-20T15:04:00;7.18;72.22
9861;DHT22;4969;52.304;4.968;2022-11-20T15:06:27;6.63;71.93
9861;DHT22;4969;52.304;4.968;2022-11-20T15:08:54;7.88;76.21
9861;DHT22;4969;52.304;4.968;2022-11-20T15:11:25;8.40;81.71
9861;DHT22;4969;52.304;4.968;2022-11-20T15:13:53;9.93;79.92
9861;DHT22;4969;52.304;4.968;2022-11-20T15:16:21;9.09;71.68
9861;DHT22;4969;52.304;4.968;2022-11-20T15:18:49;8.58;70.32
9861;DHT22;4969;52.304;4.968;2022-11-20T15:21:19;8.33;76.97
9861;DHT22;4969;52.304;4.968;2022-11-20T15:23:47;8.65;69.70
9861;DHT22;4969;52.304;4.968;2022-11-20T15:26:15;8.93;80.36
9861;DHT22;4969;52.304;4.968;2022-11-20T15:28:45;7.78;69.18
9861;DHT22;4969;52.304;4.968;2022-11-20T15:31:15;7.82;76.13
9861;DHT22;4969;52.304;4.968;2022-11-20T15:33:42;7.91;74.27
9861;DHT22;4969;52.304;4.968;2022-11-20T15:36:09;9.78;79.59
9861;DHT22;4969;52.304;4.968;2022-11-20T15:38:37;8.29;71.66
9861;DHT22;4969;52.304;4.968;2022-11-20T15:41:04;10.52;77.72
9861;DHT22;4969;52.304;4.968;2022-11-20T15:43:31;10.42;73.51
9861;DHT22;4969;52.304;4.968;2022-11-20T15:46:00;9.85;71.51
9861;DHT22;4969;52.304;4.968;2022-11-20T15:48:28;9.66;69.36
9861;DHT22;4969;52.304;4.968;2022-11-20T15:50:58;7.96;66.55
9861;DHT22;4969;52.304;4.968;2022-11-20T15:53:25;9.16;76.30
9861;DHT22;4969;52.304;4.968;2022-11-20T15:55:53;7.54;70.55
9861;DHT22;4969;52.304;4.968;2022-11-20T15:58:20;7.50;71.54
9861;DHT22;4969;52.304;4.968;2022-11-20T16:00:48;10.10;81.71
9861;DHT22;4969;52.304;4.968;2022-11-20T16:03:16;9.24;71.23
9861;DHT22;4969;52.304;4.968;2022-11-20T16:05:42;8.45;69.00
9861;DHT22;4969;52.304;4.968;2022-11-20T16:08:09;8.87;74.52
9861;DHT22;4969;52.304;4.968;2022-11-20T16:10:36;9.78;73.55
9861;DHT22;4969;52.304;4.968;2022-11-20T16:13:05;9.09;67.92
9861;DHT22;4969;52.304;4.968;2022-11-20T16:15:52;7.96;70.89
9861;DHT22;4969;52.304;4.968;2022-11-20T16:18:20;7.72;74.97
9861;DHT22;4969;52.304;4.968;2022-11-20T16:20:51;7.19;72.17
9861;DHT22;4969;52.304;4.968;2022-11-20T16:23:18;8.19;76.04
9861;DHT22;4969;52.304;4.968;2022-11-20T16:25:45;9.03;78.44
9861;DHT22;4969;52.304;4.968;2022-11-20T16:28:13;8.92;73.17
9861;DHT22;4969;52.304;4.968;2022-11-20T16:30:40;9.19;75.43
9861;DHT22;4969;52.304;4.968;2022-11-20T16:33:10;8.22;69.96
9861;DHT22;4969;52.304;4.968;2022-11-20T16:35:37;7.30;73.56